createdAt,value
2023-02-06T00:02:05.624Z,7.05
2023-02-06T00:04:33.362Z,7.03
2023-02-06T00:07:05.320Z,7.02
2023-02-06T00:09:33.194Z,6.96
2023-02-06T00:12:02.168Z,6.97
2023-02-06T00:14:31.457Z,6.98
2023-02-06T00:17:05.548Z,6.91
2023-02-06T00:19:33.337Z,6.91
2023-02-06T00:22:01.140Z,6.92
2023-02-06T00:24:29.066Z,6.67
2023-02-06T00:26:57.536Z,6.82
2023-02-06T00:29:25.991Z,6.94
2023-02-06T00:31:55.185Z,6.92
2023-02-06T00:34:22.999Z,6.87
2023-02-06T00:36:54.037Z,6.69
2023-02-06T00:39:22.046Z,6.83
2023-02-06T00:41:50.199Z,6.75
2023-02-06T00:44:19.451Z,6.80
2023-02-06T00:46:47.316Z,6.58
2023-02-06T00:49:16.806Z,6.73
2023-02-06T00:51:46.912Z,6.60
2023-02-06T00:54:16.124Z,6.68
2023-02-06T00:56:43.904Z,6.62
2023-02-06T00:59:11.652Z,6.52
2023-02-06T01:01:40.599Z,6.51
2023-02-06T01:04:08.341Z,6.53
2023-02-06T01:06:40.058Z,6.49
2023-02-06T01:09:08.089Z,6.27
2023-02-06T01:11:36.668Z,6.40
2023-02-06T01:14:04.713Z,6.34
2023-02-06T01:16:32.636Z,6.25
2023-02-06T01:19:00.431Z,6.18
2023-02-06T01:21:28.259Z,6.12
2023-02-06T01:23:57.409Z,6.07
2023-02-06T01:26:27.812Z,6.08
2023-02-06T01:28:56.528Z,5.98
2023-02-06T01:31:26.664Z,5.99
2023-02-06T01:33:54.843Z,6.00
2023-02-06T01:36:22.896Z,5.86
2023-02-06T01:38:51.213Z,5.94
2023-02-06T01:41:23.023Z,5.91
2023-02-06T01:44:11.012Z,5.86
2023-02-06T01:46:39.323Z,5.91
2023-02-06T01:49:09.692Z,5.77
2023-02-06T01:51:37.512Z,5.89
2023-02-06T01:54:07.429Z,5.87
2023-02-06T01:56:42.297Z,5.87
2023-02-06T01:59:10.552Z,5.88
2023-02-06T02:01:39.696Z,5.88
2023-02-06T02:04:11.768Z,5.85
2023-02-06T02:06:41.518Z,5.81
2023-02-06T02:09:09.968Z,5.71
2023-02-06T02:11:41.790Z,5.74
2023-02-06T02:14:12.804Z,5.60
2023-02-06T02:16:49.899Z,5.70
2023-02-06T02:19:54.105Z,5.61
2023-02-06T02:22:50.061Z,5.44
2023-02-06T02:25:54.343Z,5.45
2023-02-06T02:29:02.294Z,5.59
2023-02-06T02:31:52.254Z,5.56
2023-02-06T02:34:57.920Z,5.68
2023-02-06T02:37:35.969Z,5.73
2023-02-06T02:40:08.921Z,5.77
2023-02-06T02:42:44.424Z,5.62
2023-02-06T02:45:20.352Z,5.69
2023-02-06T02:47:56.799Z,5.70
2023-02-06T02:50:27.411Z,5.73
2023-02-06T02:52:55.258Z,5.65
2023-02-06T02:55:24.329Z,5.63
2023-02-06T02:58:04.652Z,5.59
2023-02-06T03:00:35.848Z,5.58
2023-02-06T03:03:08.160Z,5.53
2023-02-06T03:05:43.634Z,5.39
2023-02-06T03:08:18.674Z,5.31
2023-02-06T03:10:59.944Z,5.30
2023-02-06T03:13:35.474Z,5.32
2023-02-06T03:16:09.063Z,5.15
2023-02-06T03:18:43.757Z,5.27
2023-02-06T03:21:16.405Z,5.30
2023-02-06T03:23:46.893Z,5.20
2023-02-06T03:26:18.325Z,5.29
2023-02-06T03:28:50.060Z,5.29
2023-02-06T03:31:24.468Z,5.43
2023-02-06T03:33:57.467Z,5.45
2023-02-06T03:36:26.680Z,5.51
2023-02-06T03:38:54.719Z,5.59
2023-02-06T03:41:26.634Z,5.59
2023-02-06T03:43:55.126Z,5.58
2023-02-06T03:46:25.275Z,5.57
2023-02-06T03:48:58.156Z,5.55
2023-02-06T03:51:32.100Z,5.60
2023-02-06T03:54:03.601Z,5.59
2023-02-06T03:56:36.216Z,5.62
2023-02-06T03:59:04.165Z,5.65
2023-02-06T04:01:32.223Z,5.65
2023-02-06T04:04:00.248Z,5.65
2023-02-06T04:06:29.352Z,5.65
2023-02-06T04:08:57.195Z,5.64
2023-02-06T04:11:24.947Z,5.62
2023-02-06T04:13:52.786Z,5.60
2023-02-06T04:16:20.539Z,5.61
2023-02-06T04:18:48.257Z,5.58
2023-02-06T04:21:16.001Z,5.59
2023-02-06T04:23:45.150Z,5.53
2023-02-06T04:26:12.924Z,5.60
2023-02-06T04:28:40.705Z,5.59
2023-02-06T04:31:08.540Z,5.48
2023-02-06T04:33:36.398Z,5.42
2023-02-06T04:36:04.486Z,5.48
2023-02-06T04:38:32.290Z,5.40
2023-02-06T04:41:04.800Z,5.46
2023-02-06T04:43:32.890Z,5.43
2023-02-06T04:46:01.024Z,5.43
2023-02-06T04:48:28.792Z,5.46
2023-02-06T04:50:56.544Z,5.48
2023-02-06T04:53:24.290Z,5.53
2023-02-06T04:55:52.056Z,5.51
2023-02-06T04:58:21.165Z,5.57
2023-02-06T05:00:48.864Z,5.33
2023-02-06T05:03:16.660Z,5.51
2023-02-06T05:05:44.401Z,5.55
2023-02-06T05:08:12.163Z,5.62
2023-02-06T05:10:39.903Z,5.72
2023-02-06T05:13:08.033Z,5.77
2023-02-06T05:15:38.327Z,5.82
2023-02-06T05:18:07.174Z,5.68
2023-02-06T05:20:35.249Z,5.79
2023-02-06T05:23:03.078Z,5.83
2023-02-06T05:25:31.103Z,5.87
2023-02-06T05:27:58.931Z,5.93
2023-02-06T05:30:26.739Z,5.92
2023-02-06T05:32:57.857Z,5.88
2023-02-06T05:35:25.910Z,5.97
2023-02-06T05:37:53.613Z,5.84
2023-02-06T05:40:21.557Z,5.97
2023-02-06T05:42:49.338Z,5.99
2023-02-06T05:45:17.204Z,6.01
2023-02-06T05:47:44.973Z,6.05
2023-02-06T05:50:14.042Z,6.11
2023-02-06T05:52:42.179Z,6.02
2023-02-06T05:55:10.385Z,5.95
2023-02-06T05:57:38.257Z,6.09
2023-02-06T06:00:07.478Z,6.05
2023-02-06T06:02:41.171Z,6.05
2023-02-06T06:05:09.463Z,5.95
2023-02-06T06:07:38.638Z,6.06
2023-02-06T06:10:07.467Z,6.06
2023-02-06T06:12:35.260Z,6.00
2023-02-06T06:15:03.042Z,6.01
2023-02-06T06:17:30.758Z,5.92
2023-02-06T06:19:58.572Z,5.91
2023-02-06T06:22:26.292Z,5.93
2023-02-06T06:24:55.404Z,5.89
2023-02-06T06:27:23.379Z,5.93
2023-02-06T06:29:51.140Z,5.99
2023-02-06T06:32:19.749Z,5.94
2023-02-06T06:34:47.449Z,5.95
2023-02-06T06:37:15.255Z,5.95
2023-02-06T06:39:43.073Z,5.93
2023-02-06T06:42:12.200Z,5.89
2023-02-06T06:44:40.030Z,5.79
2023-02-06T06:47:07.873Z,5.85
2023-02-06T06:49:35.665Z,5.87
2023-02-06T06:52:04.485Z,5.90
2023-02-06T06:54:34.669Z,5.90
2023-02-06T06:57:02.442Z,5.86
2023-02-06T06:59:31.526Z,5.90
2023-02-06T07:01:59.261Z,5.97
2023-02-06T07:04:30.387Z,5.95
2023-02-06T07:06:58.098Z,5.89
2023-02-06T07:09:25.937Z,5.87
2023-02-06T07:11:53.690Z,5.89
2023-02-06T07:14:21.416Z,5.83
2023-02-06T07:16:50.557Z,5.88
2023-02-06T07:19:18.895Z,5.90
2023-02-06T07:21:46.736Z,5.91
2023-02-06T07:24:14.448Z,5.93
2023-02-06T07:26:43.243Z,5.94
2023-02-06T07:29:11.112Z,5.97
2023-02-06T07:31:38.995Z,5.95
2023-02-06T07:34:08.172Z,5.98
2023-02-06T07:36:35.860Z,5.93
2023-02-06T07:39:04.317Z,5.99
2023-02-06T07:41:32.049Z,6.03
2023-02-06T07:43:59.834Z,6.08
2023-02-06T07:46:28.225Z,6.07
2023-02-06T07:48:56.047Z,5.98
2023-02-06T07:51:25.170Z,6.11
2023-02-06T07:53:52.880Z,6.02
2023-02-06T07:56:23.278Z,6.13
2023-02-06T07:58:52.385Z,6.12
2023-02-06T08:01:20.772Z,6.18
2023-02-06T08:03:50.669Z,6.21
2023-02-06T08:06:19.277Z,6.24
2023-02-06T08:08:49.096Z,6.23
2023-02-06T08:11:18.553Z,6.24
2023-02-06T08:13:46.813Z,6.29
2023-02-06T08:16:17.251Z,6.31
2023-02-06T08:18:45.548Z,6.34
2023-02-06T08:21:15.662Z,6.41
2023-02-06T08:23:44.009Z,6.45
2023-02-06T08:26:15.852Z,6.47
2023-02-06T08:28:44.193Z,6.52
2023-02-06T08:31:13.637Z,6.52
2023-02-06T08:33:41.628Z,6.55
2023-02-06T08:36:10.608Z,6.56
2023-02-06T08:38:38.499Z,6.50
2023-02-06T08:41:06.998Z,6.57
2023-02-06T08:43:36.105Z,6.57
2023-02-06T08:46:03.881Z,6.61
2023-02-06T08:48:31.803Z,6.67
2023-02-06T08:51:03.717Z,6.72
2023-02-06T08:53:31.402Z,6.77
2023-02-06T08:56:00.088Z,6.76
2023-02-06T08:58:27.949Z,6.67
2023-02-06T09:00:57.441Z,6.68
2023-02-06T09:03:27.083Z,6.58
2023-02-06T09:06:09.446Z,6.55
2023-02-06T09:08:38.555Z,6.63
2023-02-06T09:11:07.567Z,6.64
2023-02-06T09:13:35.461Z,6.66
2023-02-06T09:16:05.618Z,6.62
2023-02-06T09:18:33.498Z,6.60
2023-02-06T09:21:06.604Z,6.51
2023-02-06T09:23:34.373Z,6.63
2023-02-06T09:26:02.169Z,6.68
2023-02-06T09:28:30.122Z,6.72
2023-02-06T09:30:57.985Z,6.68
2023-02-06T09:33:27.429Z,6.75
2023-02-06T09:36:05.588Z,6.79
2023-02-06T09:38:33.764Z,6.85
2023-02-06T09:41:04.829Z,6.89
2023-02-06T09:43:34.623Z,6.95
2023-02-06T09:46:06.039Z,6.87
2023-02-06T09:48:39.425Z,6.96
2023-02-06T09:51:14.079Z,6.96
2023-02-06T09:53:52.099Z,7.06
2023-02-06T09:56:30.897Z,7.02
2023-02-06T09:59:05.844Z,7.11
2023-02-06T10:01:39.671Z,7.07
2023-02-06T10:04:38.896Z,7.06
2023-02-06T10:07:18.894Z,7.15
2023-02-06T10:09:51.015Z,7.20
2023-02-06T10:12:23.352Z,7.29
2023-02-06T10:14:55.755Z,7.22
2023-02-06T10:17:26.882Z,7.43
2023-02-06T10:20:01.959Z,7.42
2023-02-06T10:22:36.804Z,7.37
2023-02-06T10:25:21.026Z,7.50
2023-02-06T10:27:56.149Z,7.37
2023-02-06T10:30:35.200Z,7.26
2023-02-06T10:33:23.870Z,7.20
2023-02-06T10:36:02.604Z,7.21
2023-02-06T10:38:52.407Z,7.16
2023-02-06T10:41:29.546Z,7.24
2023-02-06T10:44:06.002Z,7.29
2023-02-06T10:46:43.959Z,7.35
2023-02-06T10:49:19.558Z,7.42
2023-02-06T10:51:52.875Z,7.46
2023-02-06T10:54:25.424Z,7.76
2023-02-06T10:56:56.657Z,7.71
2023-02-06T10:59:30.041Z,7.65
2023-02-06T11:02:06.683Z,7.73
2023-02-06T11:04:38.831Z,7.71
2023-02-06T11:07:18.603Z,7.78
2023-02-06T11:09:46.380Z,7.87
2023-02-06T11:12:24.908Z,8.03
2023-02-06T11:14:55.849Z,8.46
2023-02-06T11:17:28.167Z,8.48
2023-02-06T11:20:05.289Z,8.40
2023-02-06T11:22:44.280Z,8.20
2023-02-06T11:25:24.478Z,8.24
2023-02-06T11:27:52.712Z,8.45
2023-02-06T11:30:33.514Z,8.58
2023-02-06T11:33:07.528Z,8.82
2023-02-06T11:35:48.376Z,8.93
2023-02-06T11:38:20.758Z,9.07
2023-02-06T11:40:57.300Z,8.73
2023-02-06T11:43:26.430Z,8.38
2023-02-06T11:46:15.148Z,8.36
2023-02-06T11:48:45.317Z,8.53
2023-02-06T11:51:16.829Z,8.78
2023-02-06T11:54:02.776Z,8.97
2023-02-06T11:56:32.645Z,8.73
2023-02-06T11:59:10.636Z,8.76
2023-02-06T12:01:44.608Z,8.69
2023-02-06T12:04:23.662Z,8.62
2023-02-06T12:06:55.675Z,8.31
2023-02-06T12:09:24.806Z,8.27
2023-02-06T12:11:58.143Z,8.34
2023-02-06T12:14:32.732Z,8.53
2023-02-06T12:17:03.740Z,8.70
2023-02-06T12:19:36.837Z,9.01
2023-02-06T12:22:13.387Z,8.97
2023-02-06T12:24:46.343Z,8.99
2023-02-06T12:27:18.881Z,9.20
2023-02-06T12:29:54.398Z,9.16
2023-02-06T12:32:29.447Z,9.38
2023-02-06T12:35:01.320Z,9.45
2023-02-06T12:37:39.539Z,10.24
2023-02-06T12:40:20.080Z,9.62
2023-02-06T12:42:56.176Z,9.34
2023-02-06T12:45:34.115Z,9.11
2023-02-06T12:48:12.374Z,8.89
2023-02-06T12:50:43.779Z,8.61
2023-02-06T12:53:17.321Z,8.57
2023-02-06T12:55:53.999Z,8.60
2023-02-06T12:58:26.043Z,8.52
2023-02-06T13:01:29.241Z,8.38
2023-02-06T13:04:01.607Z,8.29
2023-02-06T13:06:32.200Z,8.18
2023-02-06T13:09:06.378Z,8.30
2023-02-06T13:11:38.955Z,8.26
2023-02-06T13:14:16.101Z,8.22
2023-02-06T13:16:46.757Z,8.19
2023-02-06T13:19:28.663Z,8.12
2023-02-06T13:22:33.419Z,8.17
2023-02-06T13:25:03.251Z,8.12
2023-02-06T13:27:39.955Z,8.18
2023-02-06T13:30:47.491Z,8.17
2023-02-06T13:33:17.138Z,8.24
2023-02-06T13:35:58.473Z,8.17
2023-02-06T13:38:29.922Z,8.25
2023-02-06T13:41:34.251Z,8.27
2023-02-06T13:44:06.720Z,8.28
2023-02-06T13:47:08.010Z,8.24
2023-02-06T13:49:57.464Z,8.39
2023-02-06T13:52:34.098Z,8.49
2023-02-06T13:55:19.441Z,8.56
2023-02-06T13:58:20.557Z,8.55
2023-02-06T14:00:52.219Z,8.59
2023-02-06T14:03:24.878Z,8.52
2023-02-06T14:06:00.782Z,8.60
2023-02-06T14:08:37.192Z,8.68
2023-02-06T14:11:17.170Z,8.62
2023-02-06T14:13:59.738Z,8.84
2023-02-06T14:16:43.135Z,8.92
2023-02-06T14:19:21.040Z,8.91
2023-02-06T14:21:58.901Z,8.88
2023-02-06T14:24:40.420Z,8.79
2023-02-06T14:27:23.419Z,8.73
2023-02-06T14:30:03.582Z,8.71
2023-02-06T14:32:41.343Z,8.67
2023-02-06T14:35:41.519Z,8.67
2023-02-06T14:38:34.385Z,8.62
2023-02-06T14:41:04.093Z,8.72
2023-02-06T14:43:46.840Z,8.72
2023-02-06T14:46:17.905Z,8.72
2023-02-06T14:48:51.786Z,8.70
2023-02-06T14:51:24.803Z,8.76
2023-02-06T14:53:56.097Z,8.76
2023-02-06T14:56:30.112Z,8.73
2023-02-06T14:59:08.270Z,8.71
2023-02-06T15:01:36.319Z,8.45
2023-02-06T15:04:15.465Z,8.65
2023-02-06T15:06:45.029Z,8.63
2023-02-06T15:09:27.802Z,8.63
2023-02-06T15:11:57.680Z,8.60
2023-02-06T15:14:27.626Z,8.58
2023-02-06T15:16:59.680Z,8.54
2023-02-06T15:19:30.850Z,8.45
2023-02-06T15:22:10.791Z,8.49
2023-02-06T15:24:55.659Z,8.44
2023-02-06T15:27:31.082Z,8.45
2023-02-06T15:30:00.302Z,8.45
2023-02-06T15:32:30.242Z,8.43
2023-02-06T15:35:02.220Z,8.34
2023-02-06T15:37:32.726Z,8.41
2023-02-06T15:40:05.760Z,8.26
2023-02-06T15:42:33.795Z,8.39
2023-02-06T15:45:02.081Z,8.36
2023-02-06T15:47:30.706Z,8.36
2023-02-06T15:50:00.589Z,8.31
2023-02-06T15:52:37.307Z,8.29
2023-02-06T15:55:05.840Z,8.29
2023-02-06T15:57:36.501Z,8.23
2023-02-06T16:00:09.512Z,8.35
2023-02-06T16:02:40.895Z,8.32
2023-02-06T16:05:26.171Z,8.32
2023-02-06T16:07:54.795Z,8.18
2023-02-06T16:10:26.518Z,8.33
2023-02-06T16:12:55.818Z,8.32
2023-02-06T16:15:30.087Z,8.30
2023-02-06T16:18:00.448Z,8.30
2023-02-06T16:20:37.002Z,8.28
2023-02-06T16:23:29.883Z,8.24
2023-02-06T16:26:03.562Z,8.24
2023-02-06T16:28:31.418Z,8.25
2023-02-06T16:31:02.045Z,8.25
2023-02-06T16:33:38.154Z,8.24
2023-02-06T16:36:08.541Z,8.10
2023-02-06T16:38:36.266Z,8.21
2023-02-06T16:41:04.325Z,8.11
2023-02-06T16:43:32.511Z,8.14
2023-02-06T16:46:02.262Z,8.14
2023-02-06T16:48:30.194Z,8.15
2023-02-06T16:50:58.057Z,8.13
2023-02-06T16:53:27.276Z,8.12
2023-02-06T16:55:55.084Z,8.12
2023-02-06T16:58:27.058Z,8.15
2023-02-06T17:00:54.891Z,8.17
2023-02-06T17:03:22.680Z,8.19
2023-02-06T17:05:53.034Z,7.91
2023-02-06T17:08:23.907Z,7.94
2023-02-06T17:10:53.512Z,8.02
2023-02-06T17:13:23.546Z,7.98
2023-02-06T17:15:53.379Z,8.03
2023-02-06T17:18:22.640Z,8.14
2023-02-06T17:20:52.837Z,8.19
2023-02-06T17:23:21.343Z,8.16
2023-02-06T17:25:49.952Z,8.17
2023-02-06T17:28:21.139Z,8.16
2023-02-06T17:30:50.803Z,8.13
2023-02-06T17:33:18.864Z,8.11
2023-02-06T17:35:48.292Z,7.92
2023-02-06T17:38:16.215Z,7.96
2023-02-06T17:40:44.177Z,7.83
2023-02-06T17:43:12.133Z,7.72
2023-02-06T17:45:41.834Z,7.66
2023-02-06T17:48:10.213Z,7.63
2023-02-06T17:50:38.758Z,7.61
2023-02-06T17:53:07.102Z,7.65
2023-02-06T17:55:36.237Z,7.55
2023-02-06T17:58:04.432Z,7.67
2023-02-06T18:00:32.485Z,7.70
2023-02-06T18:03:01.779Z,7.63
2023-02-06T18:05:29.681Z,7.74
2023-02-06T18:07:57.564Z,7.80
2023-02-06T18:10:26.717Z,7.79
2023-02-06T18:12:54.526Z,7.81
2023-02-06T18:15:24.578Z,7.79
2023-02-06T18:17:54.841Z,7.79
2023-02-06T18:20:24.262Z,7.74
2023-02-06T18:22:52.438Z,7.76
2023-02-06T18:25:20.243Z,7.66
2023-02-06T18:27:48.131Z,7.68
2023-02-06T18:30:17.315Z,7.56
2023-02-06T18:32:45.104Z,7.62
2023-02-06T18:35:14.860Z,7.70
2023-02-06T18:37:44.253Z,7.70
2023-02-06T18:40:12.896Z,7.64
2023-02-06T18:42:55.623Z,7.72
2023-02-06T18:45:25.576Z,7.71
2023-02-06T18:47:53.408Z,7.71
2023-02-06T18:50:22.171Z,7.66
2023-02-06T18:52:51.693Z,7.65
2023-02-06T18:55:19.825Z,7.58
2023-02-06T18:57:47.924Z,7.52
2023-02-06T19:00:17.828Z,7.59
2023-02-06T19:02:45.819Z,7.53
2023-02-06T19:05:16.300Z,7.40
2023-02-06T19:07:44.063Z,7.41
2023-02-06T19:10:16.143Z,7.39
2023-02-06T19:12:46.617Z,7.32
2023-02-06T19:15:17.791Z,7.23
2023-02-06T19:17:49.558Z,7.07
2023-02-06T19:20:18.609Z,7.15
2023-02-06T19:22:53.099Z,7.12
2023-02-06T19:25:25.199Z,6.88
2023-02-06T19:27:56.839Z,6.97
2023-02-06T19:30:24.658Z,6.91
2023-02-06T19:32:52.535Z,6.84
2023-02-06T19:35:20.399Z,6.77
2023-02-06T19:37:48.289Z,6.71
2023-02-06T19:40:16.216Z,6.74
2023-02-06T19:42:45.395Z,6.73
2023-02-06T19:45:13.255Z,6.63
2023-02-06T19:47:41.037Z,6.53
2023-02-06T19:50:09.462Z,6.48
2023-02-06T19:52:57.012Z,6.42
2023-02-06T19:55:24.864Z,6.41
2023-02-06T19:57:54.059Z,6.30
2023-02-06T20:00:22.268Z,6.25
2023-02-06T20:02:50.124Z,6.19
2023-02-06T20:05:20.289Z,6.16
2023-02-06T20:07:48.188Z,6.16
2023-02-06T20:10:16.093Z,6.08
2023-02-06T20:12:44.182Z,6.10
2023-02-06T20:15:14.169Z,6.13
2023-02-06T20:17:42.194Z,6.15
2023-02-06T20:20:11.226Z,6.03
2023-02-06T20:22:39.921Z,5.93
2023-02-06T20:25:08.608Z,5.86
2023-02-06T20:27:36.390Z,5.84
2023-02-06T20:30:04.847Z,5.84
2023-02-06T20:32:33.937Z,5.78
2023-02-06T20:35:01.755Z,5.69
2023-02-06T20:37:29.834Z,5.62
2023-02-06T20:39:57.737Z,5.68
2023-02-06T20:42:27.297Z,5.62
2023-02-06T20:44:56.070Z,5.62
2023-02-06T20:47:23.889Z,5.47
2023-02-06T20:49:52.992Z,5.54
2023-02-06T20:52:21.790Z,5.52
2023-02-06T20:54:49.647Z,5.52
2023-02-06T20:57:17.455Z,5.26
2023-02-06T20:59:45.314Z,5.49
2023-02-06T21:02:13.202Z,5.39
2023-02-06T21:04:41.164Z,5.44
2023-02-06T21:07:10.370Z,5.39
2023-02-06T21:09:38.149Z,5.37
2023-02-06T21:12:06.110Z,5.32
2023-02-06T21:14:33.943Z,5.33
2023-02-06T21:17:01.757Z,5.34
2023-02-06T21:19:29.511Z,5.30
2023-02-06T21:21:57.577Z,5.29
2023-02-06T21:24:26.761Z,5.14
2023-02-06T21:26:54.738Z,5.23
2023-02-06T21:29:22.946Z,5.22
2023-02-06T21:32:12.515Z,5.23
2023-02-06T21:34:52.563Z,5.26
2023-02-06T21:37:22.571Z,5.08
2023-02-06T21:39:54.841Z,5.00
2023-02-06T21:42:26.205Z,5.14
2023-02-06T21:44:54.389Z,5.07
2023-02-06T21:47:22.315Z,5.02
2023-02-06T21:49:50.114Z,5.01
2023-02-06T21:52:17.976Z,5.06
2023-02-06T21:54:47.884Z,5.09
2023-02-06T21:57:17.042Z,5.06
2023-02-06T21:59:52.112Z,4.99
2023-02-06T22:02:22.557Z,4.90
2023-02-06T22:04:51.009Z,4.92
2023-02-06T22:07:19.752Z,4.87
2023-02-06T22:09:47.504Z,4.81
2023-02-06T22:12:15.447Z,4.83
2023-02-06T22:14:44.747Z,4.76
2023-02-06T22:17:12.512Z,4.68
2023-02-06T22:19:43.438Z,4.68
2023-02-06T22:22:12.581Z,4.67
2023-02-06T22:24:40.388Z,4.71
2023-02-06T22:27:08.470Z,4.56
2023-02-06T22:29:43.478Z,4.45
2023-02-06T22:32:12.738Z,4.52
2023-02-06T22:34:40.566Z,4.40
2023-02-06T22:37:08.349Z,4.54
2023-02-06T22:39:36.150Z,4.48
2023-02-06T22:42:08.604Z,4.53
2023-02-06T22:44:36.366Z,4.62
2023-02-06T22:47:04.613Z,4.56
2023-02-06T22:49:33.788Z,4.67
2023-02-06T22:52:01.625Z,4.50
2023-02-06T22:54:29.492Z,4.49
2023-02-06T22:56:57.839Z,4.58
2023-02-06T22:59:26.705Z,4.57
2023-02-06T23:01:57.759Z,4.60
2023-02-06T23:04:28.343Z,4.62
2023-02-06T23:06:58.203Z,4.56
2023-02-06T23:09:34.448Z,4.53
2023-02-06T23:12:06.653Z,4.58
2023-02-06T23:14:34.789Z,4.54
2023-02-06T23:17:04.184Z,4.58
2023-02-06T23:19:32.431Z,4.54
2023-02-06T23:22:02.940Z,4.52
2023-02-06T23:24:33.681Z,4.50
2023-02-06T23:27:03.639Z,4.57
2023-02-06T23:29:36.862Z,4.57
2023-02-06T23:32:05.484Z,4.54
2023-02-06T23:34:33.256Z,4.56
2023-02-06T23:37:02.438Z,4.59
2023-02-06T23:39:36.624Z,4.55
2023-02-06T23:42:04.685Z,4.46
2023-02-06T23:44:32.774Z,4.46
2023-02-06T23:47:00.556Z,4.52
2023-02-06T23:49:28.409Z,4.54
2023-02-06T23:51:56.220Z,4.56
2023-02-06T23:54:27.976Z,4.51
2023-02-06T23:56:55.777Z,4.43
2023-02-06T23:59:23.711Z,4.38
